createdAt,value
2023-05-01T00:01:12.424Z,51.66
2023-05-01T00:03:40.604Z,51.73
2023-05-01T00:06:09.127Z,51.78
2023-05-01T00:08:37.123Z,51.81
2023-05-01T00:11:05.844Z,51.76
2023-05-01T00:13:34.102Z,51.74
2023-05-01T00:16:02.316Z,51.77
2023-05-01T00:18:31.083Z,51.78
2023-05-01T00:20:59.153Z,51.70
2023-05-01T00:23:27.932Z,51.70
2023-05-01T00:25:55.818Z,51.79
2023-05-01T00:28:24.042Z,51.74
2023-05-01T00:30:52.395Z,51.79
2023-05-01T00:33:20.384Z,51.78
2023-05-01T00:35:49.150Z,51.65
2023-05-01T00:38:17.120Z,51.65
2023-05-01T00:40:45.817Z,51.74
2023-05-01T00:43:14.217Z,51.71
2023-05-01T00:45:43.935Z,51.68
2023-05-01T00:48:12.041Z,51.73
2023-05-01T00:50:41.099Z,51.70
2023-05-01T00:53:09.069Z,51.68
2023-05-01T00:55:39.394Z,51.71
2023-05-01T00:58:07.805Z,51.74
2023-05-01T01:00:35.767Z,51.71
2023-05-01T01:03:04.942Z,51.74
2023-05-01T01:05:36.195Z,51.72
2023-05-01T01:08:22.817Z,51.75
2023-05-01T01:10:50.869Z,51.65
2023-05-01T01:13:31.343Z,51.70
2023-05-01T01:16:04.482Z,51.72
2023-05-01T01:18:38.434Z,51.74
2023-05-01T01:21:07.021Z,51.69
2023-05-01T01:23:34.879Z,51.70
2023-05-01T01:26:11.869Z,51.72
2023-05-01T01:28:39.951Z,51.72
2023-05-01T01:31:26.647Z,51.68
2023-05-01T01:33:54.696Z,51.66
2023-05-01T01:36:34.902Z,51.61
2023-05-01T01:39:10.842Z,51.68
2023-05-01T01:41:41.784Z,51.64
2023-05-01T01:44:13.888Z,51.57
2023-05-01T01:46:42.829Z,51.59
2023-05-01T01:49:13.788Z,51.64
2023-05-01T01:51:42.359Z,51.61
2023-05-01T01:54:11.885Z,51.71
2023-05-01T01:56:42.211Z,51.54
2023-05-01T01:59:11.218Z,51.57
2023-05-01T02:01:41.861Z,51.56
2023-05-01T02:04:11.519Z,51.54
2023-05-01T02:06:41.214Z,51.49
2023-05-01T02:09:11.193Z,51.46
2023-05-01T02:11:41.208Z,51.53
2023-05-01T02:14:11.650Z,51.52
2023-05-01T02:16:41.089Z,51.46
2023-05-01T02:19:09.841Z,51.47
2023-05-01T02:21:39.360Z,51.51
2023-05-01T02:24:07.431Z,51.51
2023-05-01T02:26:39.092Z,51.53
2023-05-01T02:29:07.708Z,51.49
2023-05-01T02:31:35.899Z,51.56
2023-05-01T02:34:04.131Z,51.55
2023-05-01T02:36:33.438Z,51.54
2023-05-01T02:39:01.791Z,51.54
2023-05-01T02:41:30.105Z,51.52
2023-05-01T02:44:01.256Z,51.59
2023-05-01T02:46:31.164Z,51.54
2023-05-01T02:49:01.824Z,51.60
2023-05-01T02:51:30.112Z,51.55
2023-05-01T02:53:59.353Z,51.51
2023-05-01T02:56:28.292Z,51.59
2023-05-01T02:58:57.082Z,51.63
2023-05-01T03:01:24.999Z,51.58
2023-05-01T03:03:53.178Z,51.55
2023-05-01T03:06:21.345Z,51.62
2023-05-01T03:08:49.389Z,51.62
2023-05-01T03:11:17.291Z,51.63
2023-05-01T03:13:46.468Z,51.59
2023-05-01T03:16:14.466Z,51.62
2023-05-01T03:18:42.451Z,51.69
2023-05-01T03:21:10.347Z,51.65
2023-05-01T03:23:38.956Z,51.59
2023-05-01T03:26:07.774Z,51.61
2023-05-01T03:28:35.944Z,51.66
2023-05-01T03:31:03.915Z,51.63
2023-05-01T03:33:32.906Z,51.66
2023-05-01T03:36:02.314Z,51.59
2023-05-01T03:38:30.903Z,51.67
2023-05-01T03:41:10.959Z,51.65
2023-05-01T03:43:57.891Z,51.70
2023-05-01T03:46:46.337Z,51.67
2023-05-01T03:49:19.519Z,51.67
2023-05-01T03:51:49.045Z,51.65
2023-05-01T03:54:17.313Z,51.67
2023-05-01T03:57:23.571Z,51.65
2023-05-01T03:59:51.693Z,51.63
2023-05-01T04:02:20.494Z,51.70
2023-05-01T04:04:48.796Z,51.72
2023-05-01T04:07:16.899Z,51.77
2023-05-01T04:09:45.454Z,51.73
2023-05-01T04:12:14.454Z,51.81
2023-05-01T04:14:44.598Z,51.82
2023-05-01T04:17:13.249Z,51.86
2023-05-01T04:19:42.161Z,51.87
2023-05-01T04:22:10.285Z,51.86
2023-05-01T04:24:38.464Z,51.96
2023-05-01T04:27:06.338Z,52.06
2023-05-01T04:29:34.254Z,51.88
2023-05-01T04:32:02.675Z,51.98
2023-05-01T04:34:31.023Z,51.95
2023-05-01T04:36:59.321Z,52.00
2023-05-01T04:39:27.596Z,52.15
2023-05-01T04:41:57.396Z,52.10
2023-05-01T04:44:26.393Z,52.27
2023-05-01T04:46:54.641Z,52.16
2023-05-01T04:49:23.489Z,52.33
2023-05-01T04:51:51.442Z,52.38
2023-05-01T04:54:19.955Z,52.41
2023-05-01T04:56:48.317Z,52.46
2023-05-01T04:59:17.625Z,52.50
2023-05-01T05:01:46.552Z,52.55
2023-05-01T05:04:14.840Z,52.53
2023-05-01T05:06:43.138Z,52.57
2023-05-01T05:09:17.402Z,52.60
2023-05-01T05:11:47.116Z,52.68
2023-05-01T05:14:22.440Z,52.66
2023-05-01T05:16:50.901Z,52.84
2023-05-01T05:19:19.325Z,52.87
2023-05-01T05:21:47.794Z,52.99
2023-05-01T05:24:16.085Z,53.08
2023-05-01T05:26:44.067Z,53.14
2023-05-01T05:29:12.245Z,53.22
2023-05-01T05:31:40.480Z,53.31
2023-05-01T05:34:09.118Z,53.33
2023-05-01T05:36:37.860Z,53.35
2023-05-01T05:39:05.904Z,53.42
2023-05-01T05:41:34.161Z,53.43
2023-05-01T05:44:03.293Z,53.44
2023-05-01T05:46:32.219Z,53.50
2023-05-01T05:49:00.661Z,53.51
2023-05-01T05:51:28.804Z,53.53
2023-05-01T05:53:57.714Z,53.58
2023-05-01T05:56:25.995Z,53.53
2023-05-01T05:58:54.999Z,53.57
2023-05-01T06:01:22.966Z,53.70
2023-05-01T06:03:51.267Z,53.64
2023-05-01T06:06:19.652Z,53.66
2023-05-01T06:08:47.709Z,53.72
2023-05-01T06:11:16.318Z,53.71
2023-05-01T06:13:44.480Z,53.71
2023-05-01T06:16:12.741Z,53.76
2023-05-01T06:18:42.141Z,53.73
2023-05-01T06:21:11.781Z,53.80
2023-05-01T06:23:40.048Z,53.79
2023-05-01T06:26:27.167Z,53.89
2023-05-01T06:28:56.071Z,53.99
2023-05-01T06:31:24.863Z,53.89
2023-05-01T06:33:55.392Z,53.96
2023-05-01T06:36:39.027Z,53.96
2023-05-01T06:39:07.110Z,53.95
2023-05-01T06:41:36.334Z,53.90
2023-05-01T06:44:05.193Z,53.91
2023-05-01T06:46:33.296Z,53.97
2023-05-01T06:49:01.970Z,54.02
2023-05-01T06:51:31.678Z,54.00
2023-05-01T06:53:59.958Z,53.93
2023-05-01T06:56:28.030Z,53.98
2023-05-01T06:58:55.822Z,54.02
2023-05-01T07:01:23.997Z,53.96
2023-05-01T07:03:51.823Z,54.07
2023-05-01T07:06:19.850Z,54.04
2023-05-01T07:08:48.001Z,54.08
2023-05-01T07:11:16.070Z,54.05
2023-05-01T07:13:44.270Z,54.11
2023-05-01T07:16:12.476Z,54.09
2023-05-01T07:18:40.931Z,54.15
2023-05-01T07:21:11.863Z,54.16
2023-05-01T07:23:39.849Z,54.14
2023-05-01T07:26:08.026Z,54.12
2023-05-01T07:28:36.085Z,54.17
2023-05-01T07:31:04.484Z,54.16
2023-05-01T07:33:32.561Z,54.19
2023-05-01T07:36:00.408Z,54.22
2023-05-01T07:38:28.309Z,54.17
2023-05-01T07:40:57.203Z,54.21
2023-05-01T07:43:25.187Z,54.25
2023-05-01T07:45:57.608Z,54.18
2023-05-01T07:48:26.724Z,54.12
2023-05-01T07:50:55.187Z,54.25
2023-05-01T07:53:23.317Z,54.16
2023-05-01T07:55:51.718Z,54.17
2023-05-01T07:58:19.784Z,54.16
2023-05-01T08:00:47.655Z,54.24
2023-05-01T08:03:16.110Z,54.25
2023-05-01T08:05:44.311Z,54.18
2023-05-01T08:08:13.511Z,54.19
2023-05-01T08:10:41.495Z,54.20
2023-05-01T08:13:09.460Z,54.18
2023-05-01T08:15:39.270Z,54.22
2023-05-01T08:18:07.162Z,54.20
2023-05-01T08:20:36.763Z,54.17
2023-05-01T08:23:04.937Z,54.14
2023-05-01T08:25:32.956Z,54.16
2023-05-01T08:28:00.890Z,54.12
2023-05-01T08:30:28.705Z,54.22
2023-05-01T08:32:56.714Z,54.13
2023-05-01T08:35:24.910Z,54.17
2023-05-01T08:37:52.792Z,54.13
2023-05-01T08:40:21.069Z,54.08
2023-05-01T08:42:49.266Z,54.09
2023-05-01T08:45:18.966Z,54.16
2023-05-01T08:47:48.282Z,54.23
2023-05-01T08:50:17.683Z,54.12
2023-05-01T08:52:46.361Z,54.21
2023-05-01T08:55:15.036Z,54.22
2023-05-01T08:57:47.131Z,54.19
2023-05-01T09:00:18.438Z,54.17
2023-05-01T09:02:50.814Z,54.18
2023-05-01T09:05:19.845Z,54.14
2023-05-01T09:07:48.328Z,54.15
2023-05-01T09:10:19.141Z,54.08
2023-05-01T09:12:54.326Z,54.07
2023-05-01T09:15:22.703Z,54.06
2023-05-01T09:17:50.843Z,54.05
2023-05-01T09:20:19.909Z,54.01
2023-05-01T09:22:48.238Z,54.04
2023-05-01T09:25:16.229Z,54.01
2023-05-01T09:27:44.835Z,54.03
2023-05-01T09:30:30.512Z,53.94
2023-05-01T09:33:26.027Z,53.99
2023-05-01T09:35:55.024Z,53.98
2023-05-01T09:38:23.994Z,54.03
2023-05-01T09:40:57.384Z,54.01
2023-05-01T09:43:26.920Z,53.98
2023-05-01T09:46:00.951Z,53.99
2023-05-01T09:48:29.391Z,53.91
2023-05-01T09:50:57.475Z,53.90
2023-05-01T09:53:38.854Z,53.96
2023-05-01T09:56:07.221Z,53.94
2023-05-01T09:58:35.318Z,53.96
2023-05-01T10:01:03.429Z,53.92
2023-05-01T10:03:32.195Z,53.88
2023-05-01T10:06:02.969Z,53.91
2023-05-01T10:08:49.548Z,53.87
2023-05-01T10:11:17.498Z,53.89
2023-05-01T10:13:45.467Z,53.88
2023-05-01T10:16:30.176Z,53.79
2023-05-01T10:18:59.436Z,53.76
2023-05-01T10:21:28.017Z,53.78
2023-05-01T10:23:56.208Z,53.64
2023-05-01T10:26:26.429Z,53.62
2023-05-01T10:28:55.311Z,53.61
2023-05-01T10:31:23.356Z,53.60
2023-05-01T10:33:53.204Z,53.53
2023-05-01T10:36:24.285Z,53.53
2023-05-01T10:38:52.332Z,53.49
2023-05-01T10:41:39.247Z,53.49
2023-05-01T10:44:23.788Z,53.40
2023-05-01T10:46:52.110Z,53.45
2023-05-01T10:49:20.142Z,53.44
2023-05-01T10:52:01.314Z,53.35
2023-05-01T10:54:29.903Z,53.37
2023-05-01T10:56:58.926Z,53.36
2023-05-01T10:59:28.214Z,53.37
2023-05-01T11:01:56.244Z,53.29
2023-05-01T11:04:30.097Z,53.29
2023-05-01T11:07:11.477Z,53.26
2023-05-01T11:09:39.892Z,53.22
2023-05-01T11:12:09.263Z,53.20
2023-05-01T11:14:52.362Z,53.16
2023-05-01T11:17:39.169Z,53.13
2023-05-01T11:20:07.782Z,53.13
2023-05-01T11:22:36.674Z,53.04
2023-05-01T11:25:05.195Z,53.04
2023-05-01T11:27:33.344Z,53.02
2023-05-01T11:30:01.430Z,52.98
2023-05-01T11:32:32.269Z,52.99
2023-05-01T11:35:00.635Z,52.93
2023-05-01T11:37:44.920Z,52.94
2023-05-01T11:40:19.915Z,52.93
2023-05-01T11:42:48.308Z,52.86
2023-05-01T11:45:16.386Z,52.88
2023-05-01T11:47:44.582Z,52.88
2023-05-01T11:50:12.834Z,52.79
2023-05-01T11:52:53.602Z,52.89
2023-05-01T11:55:21.885Z,52.87
2023-05-01T11:57:50.887Z,52.83
2023-05-01T12:00:31.131Z,52.74
2023-05-01T12:03:03.418Z,52.76
2023-05-01T12:05:32.264Z,52.75
2023-05-01T12:08:07.267Z,52.79
2023-05-01T12:10:35.789Z,52.72
2023-05-01T12:13:04.418Z,52.69
2023-05-01T12:15:35.364Z,52.64
2023-05-01T12:18:04.600Z,52.60
2023-05-01T12:20:40.014Z,52.67
2023-05-01T12:23:10.766Z,52.63
2023-05-01T12:25:39.592Z,52.53
2023-05-01T12:28:11.911Z,52.52
2023-05-01T12:30:40.292Z,52.53
2023-05-01T12:33:15.242Z,52.38
2023-05-01T12:35:46.801Z,52.41
2023-05-01T12:38:15.473Z,52.40
2023-05-01T12:40:53.800Z,52.37
2023-05-01T12:43:22.787Z,52.33
2023-05-01T12:45:52.718Z,52.31
2023-05-01T12:48:20.876Z,52.32
2023-05-01T12:50:54.904Z,52.24
2023-05-01T12:53:24.495Z,52.31
2023-05-01T12:55:54.109Z,52.27
2023-05-01T12:58:22.491Z,52.25
2023-05-01T13:00:51.452Z,52.34
2023-05-01T13:03:29.321Z,52.32
2023-05-01T13:05:58.949Z,52.22
2023-05-01T13:08:31.191Z,52.25
2023-05-01T13:11:09.274Z,52.27
2023-05-01T13:13:37.904Z,52.20
2023-05-01T13:16:12.753Z,52.19
2023-05-01T13:18:44.249Z,52.27
2023-05-01T13:21:14.820Z,52.18
2023-05-01T13:23:43.377Z,52.15
2023-05-01T13:26:11.654Z,52.16
2023-05-01T13:28:45.325Z,52.05
2023-05-01T13:31:14.225Z,52.00
2023-05-01T13:33:46.132Z,52.07
2023-05-01T13:36:25.220Z,52.06
2023-05-01T13:38:57.325Z,51.99
2023-05-01T13:41:26.235Z,51.91
2023-05-01T13:43:55.205Z,51.83
2023-05-01T13:46:23.955Z,52.01
2023-05-01T13:48:52.220Z,51.83
2023-05-01T13:51:22.353Z,51.78
2023-05-01T13:53:50.688Z,51.72
2023-05-01T13:56:18.957Z,51.74
2023-05-01T13:58:46.945Z,51.79
2023-05-01T14:01:16.024Z,51.66
2023-05-01T14:03:44.939Z,51.63
2023-05-01T14:06:14.269Z,51.75
2023-05-01T14:08:43.270Z,51.70
2023-05-01T14:11:14.074Z,51.57
2023-05-01T14:13:42.696Z,51.53
2023-05-01T14:16:12.052Z,51.47
2023-05-01T14:18:47.499Z,51.47
2023-05-01T14:21:16.637Z,51.37
2023-05-01T14:23:44.597Z,51.37
2023-05-01T14:26:17.489Z,51.32
2023-05-01T14:28:46.682Z,51.29
2023-05-01T14:31:25.400Z,51.38
2023-05-01T14:33:55.334Z,51.31
2023-05-01T14:36:23.698Z,51.27
2023-05-01T14:38:53.320Z,51.20
2023-05-01T14:41:21.398Z,50.98
2023-05-01T14:43:53.367Z,51.04
2023-05-01T14:46:32.242Z,51.00
2023-05-01T14:49:01.168Z,51.01
2023-05-01T14:51:31.427Z,50.78
2023-05-01T14:53:59.799Z,50.89
2023-05-01T14:56:27.865Z,50.82
2023-05-01T14:58:55.751Z,50.69
2023-05-01T15:01:23.861Z,50.77
2023-05-01T15:03:53.411Z,50.75
2023-05-01T15:06:22.039Z,50.73
2023-05-01T15:08:50.410Z,50.57
2023-05-01T15:11:18.997Z,50.54
2023-05-01T15:13:49.422Z,50.60
2023-05-01T15:16:17.476Z,50.56
2023-05-01T15:18:45.684Z,50.39
2023-05-01T15:21:13.862Z,50.43
2023-05-01T15:23:45.265Z,50.27
2023-05-01T15:26:14.001Z,50.23
2023-05-01T15:28:41.986Z,50.15
2023-05-01T15:31:09.960Z,50.25
2023-05-01T15:33:38.076Z,50.13
2023-05-01T15:36:06.420Z,50.15
2023-05-01T15:38:34.390Z,50.10
2023-05-01T15:41:02.271Z,49.98
2023-05-01T15:43:30.681Z,49.99
2023-05-01T15:45:59.866Z,49.81
2023-05-01T15:48:28.037Z,49.84
2023-05-01T15:50:55.908Z,49.81
2023-05-01T15:53:23.996Z,49.76
2023-05-01T15:55:52.363Z,49.69
2023-05-01T15:58:23.110Z,49.55
2023-05-01T16:00:51.097Z,49.50
2023-05-01T16:03:19.392Z,49.50
2023-05-01T16:05:47.595Z,49.44
2023-05-01T16:08:17.451Z,49.45
2023-05-01T16:10:45.611Z,49.30
2023-05-01T16:13:14.221Z,49.35
2023-05-01T16:15:42.294Z,49.31
2023-05-01T16:18:16.181Z,49.34
2023-05-01T16:20:44.280Z,49.23
2023-05-01T16:23:14.402Z,49.14
2023-05-01T16:25:43.111Z,49.04
2023-05-01T16:28:11.997Z,49.02
2023-05-01T16:30:43.559Z,48.92
2023-05-01T16:33:18.536Z,48.96
2023-05-01T16:35:50.336Z,48.96
2023-05-01T16:38:19.266Z,48.90
2023-05-01T16:40:48.350Z,48.86
2023-05-01T16:43:16.713Z,48.79
2023-05-01T16:45:44.701Z,48.70
2023-05-01T16:48:15.247Z,48.68
2023-05-01T16:50:43.098Z,48.62
2023-05-01T16:53:10.965Z,48.56
2023-05-01T16:55:38.959Z,48.55
2023-05-01T16:58:07.127Z,48.52
2023-05-01T17:00:35.362Z,48.41
2023-05-01T17:03:03.713Z,48.44
2023-05-01T17:05:31.863Z,48.31
2023-05-01T17:08:00.057Z,48.27
2023-05-01T17:10:28.424Z,48.17
2023-05-01T17:12:56.614Z,48.08
2023-05-01T17:15:24.686Z,47.98
2023-05-01T17:17:52.690Z,47.97
2023-05-01T17:20:21.266Z,47.86
2023-05-01T17:22:49.310Z,47.86
2023-05-01T17:25:17.349Z,47.72
2023-05-01T17:27:45.271Z,47.73
2023-05-01T17:30:13.870Z,47.67
2023-05-01T17:32:42.019Z,47.50
2023-05-01T17:35:10.333Z,47.42
2023-05-01T17:37:41.067Z,47.43
2023-05-01T17:40:11.497Z,47.26
2023-05-01T17:42:39.664Z,47.28
2023-05-01T17:45:10.098Z,47.36
2023-05-01T17:47:43.107Z,47.30
2023-05-01T17:50:13.055Z,47.26
2023-05-01T17:52:42.212Z,47.26
2023-05-01T17:55:10.807Z,47.16
2023-05-01T17:57:39.998Z,47.10
2023-05-01T18:00:08.915Z,47.05
2023-05-01T18:02:45.096Z,47.10
2023-05-01T18:05:13.556Z,46.88
2023-05-01T18:07:41.514Z,46.88
2023-05-01T18:10:10.015Z,46.91
2023-05-01T18:12:37.857Z,46.86
2023-05-01T18:15:06.180Z,46.88
2023-05-01T18:17:34.085Z,46.96
2023-05-01T18:20:02.962Z,47.04
2023-05-01T18:22:30.896Z,46.99
2023-05-01T18:24:58.776Z,46.96
2023-05-01T18:27:27.250Z,46.95
2023-05-01T18:29:55.321Z,46.85
2023-05-01T18:32:32.903Z,46.92
2023-05-01T18:35:04.399Z,46.72
2023-05-01T18:37:32.965Z,46.83
2023-05-01T18:40:01.337Z,46.77
2023-05-01T18:42:29.627Z,46.87
2023-05-01T18:44:57.715Z,46.90
2023-05-01T18:47:26.938Z,46.89
2023-05-01T18:49:54.889Z,46.96
2023-05-01T18:52:22.970Z,46.98
2023-05-01T18:54:51.463Z,46.97
2023-05-01T18:57:19.327Z,47.06
2023-05-01T18:59:47.313Z,47.07
2023-05-01T19:02:15.274Z,46.91
2023-05-01T19:04:56.761Z,46.95
2023-05-01T19:07:26.006Z,46.98
2023-05-01T19:09:54.343Z,46.86
2023-05-01T19:12:22.429Z,46.97
2023-05-01T19:14:50.491Z,47.06
2023-05-01T19:17:19.007Z,46.86
2023-05-01T19:19:47.157Z,46.92
2023-05-01T19:22:15.030Z,46.97
2023-05-01T19:24:42.920Z,47.12
2023-05-01T19:27:11.797Z,47.07
2023-05-01T19:29:39.982Z,47.07
2023-05-01T19:32:08.103Z,47.12
2023-05-01T19:34:36.525Z,47.09
2023-05-01T19:37:04.606Z,47.23
2023-05-01T19:39:32.685Z,47.26
2023-05-01T19:42:02.237Z,47.35
2023-05-01T19:44:30.278Z,47.38
2023-05-01T19:46:58.249Z,47.41
2023-05-01T19:49:26.528Z,47.43
2023-05-01T19:51:54.814Z,47.45
2023-05-01T19:54:22.900Z,47.46
2023-05-01T19:56:51.854Z,47.44
2023-05-01T19:59:19.864Z,47.39
2023-05-01T20:01:47.796Z,47.46
2023-05-01T20:04:16.208Z,47.44
2023-05-01T20:06:44.403Z,47.50
2023-05-01T20:09:12.465Z,47.48
2023-05-01T20:11:40.348Z,47.48
2023-05-01T20:14:08.429Z,47.55
2023-05-01T20:16:36.932Z,47.51
2023-05-01T20:19:05.005Z,47.60
2023-05-01T20:21:32.896Z,47.64
2023-05-01T20:24:00.775Z,47.69
2023-05-01T20:26:28.901Z,47.76
2023-05-01T20:28:57.096Z,47.77
2023-05-01T20:31:25.019Z,47.83
2023-05-01T20:33:53.144Z,47.86
2023-05-01T20:36:22.425Z,47.86
2023-05-01T20:38:53.253Z,47.88
2023-05-01T20:41:21.975Z,47.94
2023-05-01T20:43:49.842Z,47.98
2023-05-01T20:46:18.206Z,48.00
2023-05-01T20:48:47.570Z,47.95
2023-05-01T20:51:16.236Z,48.02
2023-05-01T20:53:44.399Z,48.11
2023-05-01T20:56:12.380Z,48.11
2023-05-01T20:58:40.354Z,48.15
2023-05-01T21:01:08.472Z,48.23
2023-05-01T21:03:36.849Z,48.30
2023-05-01T21:06:04.975Z,48.33
2023-05-01T21:08:33.987Z,48.37
2023-05-01T21:11:02.913Z,48.49
2023-05-01T21:13:31.682Z,48.44
2023-05-01T21:16:00.302Z,48.43
2023-05-01T21:18:32.641Z,48.48
2023-05-01T21:21:02.263Z,48.41
2023-05-01T21:23:30.529Z,48.46
2023-05-01T21:25:58.519Z,48.38
2023-05-01T21:28:26.487Z,48.44
2023-05-01T21:30:54.581Z,48.51
2023-05-01T21:33:22.618Z,48.51
2023-05-01T21:35:50.626Z,48.62
2023-05-01T21:38:18.591Z,48.63
2023-05-01T21:40:46.654Z,48.58
2023-05-01T21:43:14.836Z,48.68
2023-05-01T21:45:43.513Z,48.73
2023-05-01T21:48:14.607Z,48.80
2023-05-01T21:50:42.757Z,48.82
2023-05-01T21:53:10.749Z,48.77
2023-05-01T21:55:38.897Z,48.83
2023-05-01T21:58:06.792Z,48.78
2023-05-01T22:00:34.925Z,48.97
2023-05-01T22:03:06.264Z,49.12
2023-05-01T22:05:34.798Z,49.21
2023-05-01T22:08:02.769Z,49.23
2023-05-01T22:10:30.646Z,49.25
2023-05-01T22:12:58.705Z,49.18
2023-05-01T22:15:26.790Z,49.22
2023-05-01T22:17:54.659Z,49.29
2023-05-01T22:20:22.638Z,49.38
2023-05-01T22:22:50.475Z,49.36
2023-05-01T22:25:18.589Z,49.51
2023-05-01T22:27:46.975Z,49.63
2023-05-01T22:30:14.845Z,49.65
2023-05-01T22:32:42.761Z,49.50
2023-05-01T22:35:10.998Z,49.59
2023-05-01T22:37:39.048Z,49.73
2023-05-01T22:40:07.563Z,49.81
2023-05-01T22:42:36.143Z,49.77
2023-05-01T22:45:04.433Z,49.82
2023-05-01T22:47:32.424Z,49.93
2023-05-01T22:50:00.640Z,49.94
2023-05-01T22:52:29.065Z,49.97
2023-05-01T22:54:56.942Z,49.96
2023-05-01T22:57:25.017Z,49.99
2023-05-01T22:59:53.105Z,50.08
2023-05-01T23:02:21.469Z,50.09
2023-05-01T23:04:49.745Z,50.05
2023-05-01T23:07:18.236Z,50.28
2023-05-01T23:09:46.939Z,50.29
2023-05-01T23:12:16.785Z,50.42
2023-05-01T23:14:45.950Z,50.43
2023-05-01T23:17:14.976Z,50.41
2023-05-01T23:19:46.292Z,50.44
2023-05-01T23:22:14.478Z,50.46
2023-05-01T23:24:44.498Z,50.53
2023-05-01T23:27:13.810Z,50.64
2023-05-01T23:29:42.019Z,50.66
2023-05-01T23:32:15.349Z,50.73
2023-05-01T23:34:43.465Z,50.73
2023-05-01T23:37:11.332Z,50.74
2023-05-01T23:39:39.207Z,50.81
2023-05-01T23:42:07.119Z,50.84
2023-05-01T23:44:35.247Z,50.83
2023-05-01T23:47:03.303Z,50.81
2023-05-01T23:49:31.411Z,50.82
2023-05-01T23:51:59.381Z,50.82
2023-05-01T23:54:27.562Z,50.81
2023-05-01T23:56:55.940Z,50.80
2023-05-01T23:59:24.119Z,50.85
